Time;durP1;ratioP1;P1;durP2;ratioP2;P2;SDS_P1;SDS_P2;PMS_P1;PMS_P2;Temp;Humidity;BMP_temperature;BMP_pressure;BME280_temperature;BME280_humidity;BME280_pressure;Samples;Min_cycle;Max_cycle;Signal;HPM_P1;HPM_P2
2022/04/11 00:00:23;;;;;;;7.50;5.13;;;11.40;99.90;;;;;;5062683;28;20239;-86
2022/04/11 00:02:49;;;;;;;8.00;5.43;;;11.30;99.90;;;;;;5064062;28;20165;-87
2022/04/11 00:05:15;;;;;;;6.90;4.90;;;11.40;99.90;;;;;;5049379;28;20238;-87
2022/04/11 00:07:41;;;;;;;7.97;5.43;;;11.40;37.50;;;;;;5057106;28;20197;-76
2022/04/11 00:10:07;;;;;;;10.27;5.50;;;11.30;1.00;;;;;;5075167;28;20624;-77
2022/04/11 00:12:35;;;;;;;10.77;5.60;;;11.40;74.60;;;;;;5059903;28;20176;-84
2022/04/11 00:15:13;;;;;;;8.07;5.20;;;11.40;1.00;;;;;;5055823;28;20240;-82
2022/04/11 00:17:38;;;;;;;6.90;5.13;;;11.40;58.40;;;;;;5057063;28;20160;-87
2022/04/11 00:20:05;;;;;;;8.10;5.17;;;11.20;29.50;;;;;;5056376;28;20242;-83
2022/04/11 00:22:36;;;;;;;10.80;5.03;;;11.20;99.90;;;;;;5055396;28;20173;-83
2022/04/11 00:25:04;;;;;;;8.17;5.27;;;11.20;99.90;;;;;;5063645;28;20169;-77
2022/04/11 00:27:29;;;;;;;8.40;5.00;;;11.30;99.90;;;;;;5072416;28;20197;-77
2022/04/11 00:30:01;;;;;;;7.17;4.90;;;11.30;1.00;;;;;;5067293;28;20161;-86
2022/04/11 00:32:27;;;;;;;7.00;5.10;;;11.40;1.00;;;;;;5057783;28;20189;-85
2022/04/11 00:34:52;;;;;;;7.63;4.77;;;11.50;1.00;;;;;;5056137;28;20165;-83
2022/04/11 00:37:18;;;;;;;6.23;4.73;;;11.40;1.00;;;;;;5038155;28;20173;-84
2022/04/11 00:39:45;;;;;;;8.50;5.10;;;11.40;1.00;;;;;;5056038;28;20193;-87
2022/04/11 00:42:13;;;;;;;8.67;4.37;;;11.40;45.90;;;;;;5037787;28;20279;-82
2022/04/11 00:44:39;;;;;;;7.87;4.47;;;11.40;95.80;;;;;;5055579;28;20246;-87
2022/04/11 00:47:05;;;;;;;7.43;4.50;;;11.30;22.10;;;;;;5055757;28;20668;-85
2022/04/11 00:49:31;;;;;;;7.40;4.67;;;11.20;99.90;;;;;;5057845;28;20196;-87
2022/04/11 00:51:57;;;;;;;9.57;5.00;;;11.10;99.90;;;;;;5056244;28;20161;-86
2022/04/11 00:54:24;;;;;;;8.27;4.30;;;11.00;99.90;;;;;;5056049;28;20161;-86
2022/04/11 00:56:50;;;;;;;7.70;5.27;;;11.00;99.90;;;;;;5057412;28;20625;-84
2022/04/11 00:59:18;;;;;;;10.90;4.63;;;11.10;99.90;;;;;;5056519;28;20161;-87
2022/04/11 01:01:44;;;;;;;8.07;4.53;;;11.10;99.90;;;;;;5057394;28;20165;-88
2022/04/11 01:04:23;;;;;;;7.87;3.90;;;11.10;99.90;;;;;;5067317;28;20152;-79
2022/04/11 01:06:50;;;;;;;5.93;4.20;;;11.10;99.90;;;;;;5077044;28;20189;-77
2022/04/11 01:09:16;;;;;;;8.70;4.50;;;11.10;99.90;;;;;;5075931;28;20170;-79
2022/04/11 01:11:42;;;;;;;8.23;4.43;;;11.00;99.90;;;;;;5068150;28;20169;-84
2022/04/11 01:14:08;;;;;;;6.30;4.27;;;11.10;99.90;;;;;;5030870;28;20201;-88
2022/04/11 01:16:37;;;;;;;7.33;4.30;;;11.10;99.90;;;;;;5061761;28;20172;-83
2022/04/11 01:19:06;;;;;;;5.93;3.77;;;11.10;99.90;;;;;;5056636;28;20168;-87
2022/04/11 01:21:50;;;;;;;6.63;4.57;;;11.20;99.90;;;;;;5058117;28;20169;-87
2022/04/11 01:24:21;;;;;;;7.63;3.83;;;11.00;99.90;;;;;;5058134;28;20184;-88
2022/04/11 01:26:48;;;;;;;8.07;3.90;;;11.10;99.90;;;;;;5041683;28;20208;-87
2022/04/11 01:29:18;;;;;;;6.00;4.20;;;11.10;99.90;;;;;;5066679;28;20172;-79
2022/04/11 01:31:44;;;;;;;8.40;4.23;;;10.90;99.90;;;;;;5058623;28;20184;-82
2022/04/11 01:34:10;;;;;;;7.27;4.37;;;10.80;99.90;;;;;;5076809;28;20176;-81
2022/04/11 01:36:38;;;;;;;7.00;4.50;;;10.80;99.90;;;;;;5075562;28;20311;-85
2022/04/11 01:39:04;;;;;;;8.17;4.30;;;10.60;1.00;;;;;;5070123;28;20161;-85
2022/04/11 01:41:33;;;;;;;7.00;4.13;;;10.80;1.00;;;;;;5069372;28;20175;-85
2022/04/11 01:43:58;;;;;;;6.27;3.80;;;10.70;1.00;;;;;;5053703;28;20212;-78
2022/04/11 01:46:28;;;;;;;6.00;3.70;;;10.70;1.00;;;;;;5080701;28;20220;-75
2022/04/11 01:48:54;;;;;;;6.50;4.13;;;10.60;1.00;;;;;;5078486;28;20180;-83
2022/04/11 01:51:23;;;;;;;5.77;4.07;;;10.60;1.00;;;;;;5075706;28;20157;-78
2022/04/11 01:53:48;;;;;;;5.17;3.80;;;10.60;1.00;;;;;;5059138;28;20177;-83
2022/04/11 01:56:14;;;;;;;7.33;3.87;;;10.70;1.00;;;;;;5078080;28;20173;-86
2022/04/11 01:58:40;;;;;;;5.20;4.00;;;10.70;1.00;;;;;;5050018;28;20200;-86
2022/04/11 02:01:05;;;;;;;6.70;4.00;;;10.60;1.00;;;;;;5066992;28;20169;-76
2022/04/11 02:03:34;;;;;;;8.27;4.77;;;10.60;1.00;;;;;;5073319;28;20173;-82
2022/04/11 02:06:01;;;;;;;6.67;3.73;;;10.60;1.00;;;;;;5060044;28;20212;-86
2022/04/11 02:08:32;;;;;;;8.27;4.33;;;10.60;1.00;;;;;;5057524;28;20248;-86
2022/04/11 02:10:59;;;;;;;8.57;4.33;;;10.50;1.00;;;;;;5059346;28;20176;-87
2022/04/11 02:13:24;;;;;;;5.90;3.70;;;10.30;1.00;;;;;;5058170;28;20181;-88
2022/04/11 02:15:50;;;;;;;7.67;4.30;;;10.30;1.00;;;;;;5074767;28;20173;-80
2022/04/11 02:18:15;;;;;;;8.60;4.50;;;10.10;1.00;;;;;;5073743;28;20252;-86
2022/04/11 02:20:41;;;;;;;7.13;4.47;;;10.00;1.00;;;;;;5060887;28;20585;-87
2022/04/11 02:23:07;;;;;;;6.57;4.63;;;10.00;1.00;;;;;;5058735;28;20621;-88
2022/04/11 02:25:34;;;;;;;7.83;4.23;;;10.00;1.00;;;;;;5069104;28;20184;-76
2022/04/11 02:28:00;;;;;;;7.37;4.30;;;9.90;1.00;;;;;;5079172;28;20192;-80
2022/04/11 02:30:27;;;;;;;7.90;4.00;;;9.80;1.00;;;;;;5071552;28;20659;-87
2022/04/11 02:32:53;;;;;;;6.27;3.80;;;9.80;1.00;;;;;;5058940;28;20259;-83
2022/04/11 02:35:20;;;;;;;7.60;3.93;;;9.70;1.00;;;;;;5058231;28;20165;-81
2022/04/11 02:37:46;;;;;;;6.50;3.77;;;9.70;1.00;;;;;;5057888;28;20214;-85
2022/04/11 02:40:12;;;;;;;8.30;4.30;;;9.60;1.00;;;;;;5058178;28;20581;-87
2022/04/11 02:42:42;;;;;;;7.50;4.07;;;9.60;1.00;;;;;;5058091;28;20192;-86
2022/04/11 02:45:12;;;;;;;5.70;4.17;;;9.60;1.00;;;;;;5059401;28;20181;-87
2022/04/11 02:47:39;;;;;;;7.70;3.97;;;9.40;1.00;;;;;;5059472;28;20209;-85
2022/04/11 02:50:07;;;;;;;5.47;3.63;;;9.30;1.00;;;;;;5040599;28;20173;-86
2022/04/11 02:52:33;;;;;;;5.13;3.53;;;9.30;1.00;;;;;;5057459;28;20188;-83
2022/04/11 02:54:59;;;;;;;9.17;3.77;;;9.30;1.00;;;;;;5057222;28;20169;-88
2022/04/11 02:57:25;;;;;;;6.70;3.50;;;9.30;1.00;;;;;;5041219;28;20192;-82
2022/04/11 02:59:51;;;;;;;6.80;3.73;;;9.40;1.00;;;;;;5061920;28;20195;-77
2022/04/11 03:02:20;;;;;;;6.20;3.37;;;9.30;1.00;;;;;;5067125;28;20251;-87
2022/04/11 03:04:45;;;;;;;7.90;4.00;;;9.30;1.00;;;;;;5058528;28;20215;-87
2022/04/11 03:07:11;;;;;;;6.53;3.30;;;9.40;1.00;;;;;;5059541;28;20212;-88
2022/04/11 03:09:37;;;;;;;8.00;3.30;;;9.30;1.00;;;;;;5060812;28;20172;-87
2022/04/11 03:12:03;;;;;;;6.77;3.47;;;9.20;1.00;;;;;;5064229;28;20176;-87
2022/04/11 03:14:30;;;;;;;6.87;3.57;;;9.30;1.00;;;;;;5076033;28;20188;-80
2022/04/11 03:16:56;;;;;;;5.77;3.50;;;9.40;1.00;;;;;;5079287;28;20187;-83
2022/04/11 03:19:22;;;;;;;6.63;3.30;;;9.30;1.00;;;;;;5079466;28;20177;-85
2022/04/11 03:21:47;;;;;;;5.87;3.40;;;9.40;1.00;;;;;;5076615;28;20153;-86
2022/04/11 03:24:13;;;;;;;8.80;3.63;;;9.40;1.00;;;;;;5076373;28;20177;-86
2022/04/11 03:26:39;;;;;;;7.80;3.97;;;9.40;1.00;;;;;;5076790;28;20204;-81
2022/04/11 03:29:05;;;;;;;7.50;3.83;;;9.30;1.00;;;;;;5079604;28;20144;-84
2022/04/11 03:31:31;;;;;;;9.20;3.90;;;9.40;1.00;;;;;;5079514;28;20161;-82
2022/04/11 03:34:13;;;;;;;6.40;3.37;;;9.40;1.00;;;;;;5076722;28;20184;-77
2022/04/11 03:36:53;;;;;;;7.77;3.80;;;9.30;1.00;;;;;;5075697;28;20181;-76
2022/04/11 03:39:48;;;;;;;6.80;3.90;;;9.40;1.00;;;;;;5063985;28;20161;-85
2022/04/11 03:42:34;;;;;;;8.13;3.70;;;9.30;1.00;;;;;;5058741;28;20161;-82
2022/04/11 03:44:59;;;;;;;5.27;3.27;;;9.40;1.00;;;;;;5057785;28;20184;-87
2022/04/11 03:47:25;;;;;;;8.27;3.53;;;9.20;1.00;;;;;;5057164;28;20208;-83
2022/04/11 03:49:51;;;;;;;7.30;3.60;;;9.20;1.00;;;;;;5063079;28;20168;-81
2022/04/11 03:52:16;;;;;;;6.80;3.50;;;9.20;1.00;;;;;;5078628;28;20168;-80
2022/04/11 03:54:42;;;;;;;6.73;3.37;;;9.10;1.00;;;;;;5075495;28;20169;-86
2022/04/11 03:57:07;;;;;;;6.50;3.77;;;9.20;1.00;;;;;;5063466;28;20259;-87
2022/04/11 03:59:33;;;;;;;5.90;3.20;;;9.10;1.00;;;;;;5057689;28;20165;-87
2022/04/11 04:01:59;;;;;;;5.30;2.93;;;9.10;1.00;;;;;;5060237;28;20180;-86
2022/04/11 04:04:24;;;;;;;7.10;3.37;;;9.00;1.00;;;;;;5058704;28;20165;-87
2022/04/11 04:06:50;;;;;;;4.70;3.23;;;8.90;1.00;;;;;;5057173;28;20185;-86
2022/04/11 04:09:16;;;;;;;6.03;3.03;;;8.80;1.00;;;;;;5057063;28;20161;-86
2022/04/11 04:11:41;;;;;;;4.63;2.70;;;8.90;1.00;;;;;;5060709;28;20225;-86
2022/04/11 04:14:07;;;;;;;6.50;3.27;;;8.80;1.00;;;;;;5061722;28;20192;-87
2022/04/11 04:16:33;;;;;;;6.63;2.87;;;8.80;1.00;;;;;;5067576;28;20172;-84
2022/04/11 04:18:59;;;;;;;7.83;3.53;;;8.80;1.00;;;;;;5065269;28;20169;-82
2022/04/11 04:21:25;;;;;;;4.77;2.77;;;8.80;1.00;;;;;;5068712;28;20137;-80
2022/04/11 04:23:56;;;;;;;8.50;3.37;;;8.70;1.00;;;;;;5078029;28;20238;-80
2022/04/11 04:26:25;;;;;;;6.20;3.20;;;8.70;1.00;;;;;;5077502;28;20200;-79
2022/04/11 04:29:34;;;;;;;7.47;3.13;;;8.70;1.00;;;;;;5072872;28;20161;-86
2022/04/11 04:32:13;;;;;;;8.33;3.00;;;8.80;1.00;;;;;;5058689;28;20628;-86
2022/04/11 04:34:39;;;;;;;5.70;2.90;;;8.90;1.00;;;;;;5038419;28;20172;-86
2022/04/11 04:37:05;;;;;;;5.63;2.83;;;9.10;1.00;;;;;;5057131;28;20601;-87
2022/04/11 04:39:30;;;;;;;6.40;3.27;;;9.10;1.00;;;;;;5057139;28;20631;-81
2022/04/11 04:41:56;;;;;;;5.73;3.10;;;9.30;1.00;;;;;;5056293;28;20173;-84
2022/04/11 04:44:21;;;;;;;6.13;3.33;;;9.40;1.00;;;;;;5055754;28;20173;-87
2022/04/11 04:46:47;;;;;;;6.03;2.63;;;9.30;1.00;;;;;;5063849;28;20279;-85
2022/04/11 04:49:13;;;;;;;6.47;2.77;;;9.10;1.00;;;;;;5042659;28;20190;-85
2022/04/11 04:51:38;;;;;;;6.27;3.27;;;9.30;1.00;;;;;;5069173;28;20176;-84
2022/04/11 04:54:04;;;;;;;6.43;3.20;;;9.10;1.00;;;;;;5049897;28;20271;-85
2022/04/11 04:56:32;;;;;;;6.80;3.00;;;9.10;1.00;;;;;;5056592;28;20251;-80
2022/04/11 04:59:00;;;;;;;7.57;3.40;;;9.10;1.00;;;;;;5057145;28;20223;-85
2022/04/11 05:01:29;;;;;;;4.97;2.73;;;9.10;1.00;;;;;;5058059;28;20176;-85
2022/04/11 05:03:56;;;;;;;7.33;3.20;;;9.00;1.00;;;;;;5055823;28;20169;-83
2022/04/11 05:06:22;;;;;;;5.17;2.90;;;9.10;1.00;;;;;;5055773;28;20226;-88
2022/04/11 05:08:48;;;;;;;5.90;3.40;;;8.90;1.00;;;;;;5038514;28;20177;-86
2022/04/11 05:11:14;;;;;;;5.93;3.23;;;8.90;1.00;;;;;;5057354;28;20165;-87
2022/04/11 05:13:40;;;;;;;9.80;3.23;;;8.80;1.00;;;;;;5067864;28;20195;-85
2022/04/11 05:16:06;;;;;;;9.20;3.27;;;8.70;1.00;;;;;;5071386;28;20216;-85
2022/04/11 05:18:32;;;;;;;8.87;3.30;;;8.90;1.00;;;;;;5075838;28;20189;-81
2022/04/11 05:20:57;;;;;;;10.37;4.63;;;8.90;1.00;;;;;;5048373;28;20168;-85
2022/04/11 05:23:23;;;;;;;7.77;3.83;;;8.70;1.00;;;;;;5060509;28;20173;-85
2022/04/11 05:25:48;;;;;;;6.97;3.20;;;8.60;1.00;;;;;;5060345;28;20259;-86
2022/04/11 05:28:14;;;;;;;9.60;3.27;;;8.50;1.00;;;;;;5041040;28;20208;-84
2022/04/11 05:30:40;;;;;;;4.40;3.20;;;8.60;1.00;;;;;;5060118;28;20247;-86
2022/04/11 05:33:07;;;;;;;7.27;3.40;;;8.80;1.00;;;;;;5059271;28;20251;-84
2022/04/11 05:35:32;;;;;;;5.33;2.70;;;8.80;1.00;;;;;;5060912;28;20161;-86
2022/04/11 05:37:58;;;;;;;9.50;3.70;;;8.90;1.00;;;;;;5075025;28;20268;-81
2022/04/11 05:40:25;;;;;;;6.03;3.23;;;8.90;1.00;;;;;;5061692;28;20181;-85
2022/04/11 05:42:51;;;;;;;10.57;3.97;;;9.10;1.00;;;;;;5062950;28;20165;-85
2022/04/11 05:45:17;;;;;;;7.73;3.27;;;9.20;1.00;;;;;;5061890;28;20183;-80
2022/04/11 05:47:46;;;;;;;6.67;3.13;;;9.20;1.00;;;;;;5080440;28;20235;-75
2022/04/11 05:50:12;;;;;;;7.40;2.70;;;9.10;1.00;;;;;;5078993;28;20210;-84
2022/04/11 05:52:39;;;;;;;5.60;3.37;;;9.10;1.00;;;;;;5070337;28;20244;-86
2022/04/11 05:55:05;;;;;;;6.50;3.37;;;9.20;1.00;;;;;;5064278;28;20609;-85
2022/04/11 05:57:33;;;;;;;9.20;3.23;;;9.40;1.00;;;;;;5077045;28;20208;-82
2022/04/11 06:00:12;;;;;;;5.87;3.30;;;9.40;1.00;;;;;;5063587;28;20177;-81
2022/04/11 06:02:41;;;;;;;9.20;3.63;;;9.30;1.00;;;;;;5091463;28;20171;-87
2022/04/11 06:05:55;;;;;;;7.03;3.20;;;9.40;1.00;;;;;;5079507;28;20236;-81
2022/04/11 06:08:20;;;;;;;11.70;4.00;;;9.40;1.00;;;;;;5062378;28;20223;-86
2022/04/11 06:10:46;;;;;;;8.80;3.70;;;9.40;1.00;;;;;;5079098;28;20172;-88
2022/04/11 06:13:12;;;;;;;7.17;3.10;;;9.50;1.00;;;;;;5078634;28;20222;-85
2022/04/11 06:15:39;;;;;;;6.07;3.10;;;9.70;1.00;;;;;;5077805;28;20168;-84
2022/04/11 06:18:04;;;;;;;7.27;3.40;;;9.70;1.00;;;;;;5060867;28;20278;-86
2022/04/11 06:20:30;;;;;;;7.83;3.17;;;9.60;1.00;;;;;;5069151;28;20619;-87
2022/04/11 06:22:57;;;;;;;9.17;3.20;;;9.80;1.00;;;;;;5062510;28;20256;-83
2022/04/11 06:25:23;;;;;;;5.50;3.17;;;9.80;1.00;;;;;;5060966;28;20631;-86
2022/04/11 06:27:49;;;;;;;6.80;2.83;;;9.90;1.00;;;;;;5068615;28;20212;-81
2022/04/11 06:30:14;;;;;;;5.83;3.03;;;9.80;1.00;;;;;;5075133;28;20192;-77
2022/04/11 06:32:40;;;;;;;6.60;3.10;;;9.90;1.00;;;;;;5075377;28;20177;-87
2022/04/11 06:35:08;;;;;;;5.63;2.83;;;9.90;1.00;;;;;;5063122;28;20161;-86
2022/04/11 06:37:34;;;;;;;6.30;3.00;;;9.70;1.00;;;;;;5060109;28;20169;-88
2022/04/11 06:40:01;;;;;;;5.93;2.80;;;9.60;1.00;;;;;;5061329;28;20176;-86
2022/04/11 06:42:26;;;;;;;7.77;3.07;;;9.70;1.00;;;;;;5060000;28;20172;-87
2022/04/11 06:44:52;;;;;;;6.40;3.33;;;9.90;1.00;;;;;;5062040;28;20321;-86
2022/04/11 06:47:21;;;;;;;8.00;3.60;;;10.00;1.00;;;;;;5063922;28;20208;-88
2022/04/11 06:49:47;;;;;;;5.93;3.40;;;9.90;1.00;;;;;;5063443;28;20191;-89
2022/04/11 06:52:13;;;;;;;7.93;3.10;;;10.00;1.00;;;;;;5062803;28;20207;-89
2022/04/11 06:54:38;;;;;;;7.33;2.73;;;10.30;99.90;;;;;;5066671;28;20169;-89
2022/04/11 06:57:11;;;;;;;4.47;2.70;;;10.40;99.90;;;;;;5080384;28;20204;-88
2022/04/11 06:59:36;;;;;;;7.60;2.87;;;10.10;99.90;;;;;;5087911;28;20260;-89
2022/04/11 07:02:02;;;;;;;5.10;2.83;;;10.20;99.90;;;;;;5095111;28;20267;-90
2022/04/11 07:04:28;;;;;;;8.80;3.10;;;10.40;99.90;;;;;;5095450;28;20161;-90
2022/04/11 07:06:57;;;;;;;6.50;2.90;;;10.50;99.90;;;;;;5096738;28;20222;-79
2022/04/11 07:09:31;;;;;;;6.23;2.80;;;10.70;99.90;;;;;;5095507;28;20191;-87
2022/04/11 07:12:03;;;;;;;8.83;2.50;;;10.80;93.30;;;;;;5089807;28;20153;-83
2022/04/11 07:14:28;;;;;;;5.67;2.47;;;10.90;1.00;;;;;;5092389;28;20211;-82
2022/04/11 07:16:55;;;;;;;5.93;3.17;;;11.10;99.90;;;;;;5098089;28;20188;-79
2022/04/11 07:19:21;;;;;;;6.43;2.63;;;11.00;1.00;;;;;;5097903;28;20164;-82
2022/04/11 07:21:47;;;;;;;5.93;3.10;;;11.00;99.90;;;;;;5077100;28;20211;-85
2022/04/11 07:24:20;;;;;;;5.13;2.80;;;11.20;1.00;;;;;;5097320;28;20168;-79
2022/04/11 07:26:48;;;;;;;7.27;3.10;;;11.30;99.90;;;;;;5096784;28;20192;-78
2022/04/11 07:29:14;;;;;;;5.10;2.70;;;11.50;99.90;;;;;;5098327;28;20165;-77
2022/04/11 07:31:41;;;;;;;7.43;2.90;;;11.50;58.50;;;;;;5095752;28;20160;-86
2022/04/11 07:34:07;;;;;;;6.90;2.50;;;11.50;1.00;;;;;;5092642;28;20164;-87
2022/04/11 07:36:36;;;;;;;11.93;8.57;;;11.40;1.00;;;;;;5094413;28;20183;-86
2022/04/11 07:39:14;;;;;;;5.47;2.93;;;11.60;1.00;;;;;;5097693;28;20168;-82
2022/04/11 07:41:42;;;;;;;6.80;2.60;;;11.60;99.90;;;;;;5098582;28;20152;-79
2022/04/11 07:47:17;;;;;;;6.07;2.90;;;11.90;1.00;;;;;;5115095;27;20513;-81
2022/04/11 07:49:43;;;;;;;5.33;2.70;;;11.60;99.90;;;;;;5113739;28;20168;-87
2022/04/11 07:52:10;;;;;;;4.67;2.60;;;12.00;99.90;;;;;;5112557;28;20163;-81
2022/04/11 07:54:36;;;;;;;4.47;2.40;;;12.00;1.00;;;;;;5111459;28;20179;-85
2022/04/11 07:57:05;;;;;;;5.03;2.53;;;12.00;99.90;;;;;;5110918;28;20167;-88
2022/04/11 07:59:32;;;;;;;5.20;2.73;;;12.00;1.00;;;;;;5111431;28;20167;-89
2022/04/11 08:01:58;;;;;;;6.60;3.10;;;12.10;76.00;;;;;;5109944;28;20197;-83
2022/04/11 08:04:25;;;;;;;6.43;3.20;;;12.20;1.00;;;;;;5114859;28;20152;-80
2022/04/11 08:06:51;;;;;;;5.30;2.80;;;12.30;99.90;;;;;;5114014;28;21392;-77
2022/04/11 08:09:19;;;;;;;7.23;3.07;;;12.40;1.00;;;;;;5115305;28;20158;-80
2022/04/11 08:11:45;;;;;;;7.60;2.77;;;12.40;1.00;;;;;;5110824;28;20695;-87
2022/04/11 08:14:10;;;;;;;6.17;2.70;;;12.60;99.90;;;;;;5111691;28;20188;-85
2022/04/11 08:16:39;;;;;;;5.77;2.50;;;13.00;99.90;;;;;;5111563;28;20176;-85
2022/04/11 08:19:08;;;;;;;9.90;3.20;;;12.80;99.90;;;;;;5105892;28;20160;-90
2022/04/11 08:21:39;;;;;;;5.10;2.53;;;12.60;1.90;;;;;;5100265;28;20625;-82
2022/04/11 08:24:08;;;;;;;9.03;3.07;;;12.60;1.00;;;;;;5100074;28;20184;-88
2022/04/11 08:26:34;;;;;;;6.77;2.47;;;12.70;99.90;;;;;;5100663;28;20279;-87
2022/04/11 08:28:59;;;;;;;4.90;2.70;;;12.90;99.90;;;;;;5105472;28;20176;-88
2022/04/11 08:31:27;;;;;;;6.40;2.60;;;12.80;99.90;;;;;;5097459;28;20184;-87
2022/04/11 08:33:54;;;;;;;4.73;2.23;;;12.80;1.00;;;;;;5098002;28;20160;-87
2022/04/11 08:36:23;;;;;;;7.10;2.60;;;13.00;1.00;;;;;;5099446;28;20172;-88
2022/04/11 08:38:52;;;;;;;8.53;2.53;;;13.30;1.00;;;;;;5100077;28;20180;-89
2022/04/11 08:41:19;;;;;;;9.53;2.57;;;13.20;99.90;;;;;;5103389;28;20166;-89
2022/04/11 08:43:46;;;;;;;6.53;3.10;;;13.50;99.90;;;;;;5103604;28;20163;-87
2022/04/11 08:46:17;;;;;;;6.03;2.57;;;13.40;99.90;;;;;;5106526;28;20219;-81
2022/04/11 08:48:43;;;;;;;6.30;2.63;;;13.00;99.90;;;;;;5113288;28;20159;-81
2022/04/11 08:51:11;;;;;;;3.67;1.80;;;12.80;5.60;;;;;;5112287;28;20231;-82
2022/04/11 08:53:37;;;;;;;5.17;2.57;;;12.70;1.00;;;;;;5111814;28;20160;-84
2022/04/11 08:56:03;;;;;;;3.80;2.20;;;12.70;99.90;;;;;;5112284;28;20171;-84
2022/04/11 08:58:29;;;;;;;4.97;2.43;;;12.90;99.90;;;;;;5094988;28;20156;-90
2022/04/11 09:00:55;;;;;;;3.70;2.13;;;13.00;99.90;;;;;;5098543;28;20236;-88
2022/04/11 09:03:21;;;;;;;4.63;2.03;;;13.30;98.20;;;;;;5096101;28;20173;-86
2022/04/11 09:06:30;;;;;;;6.53;2.40;;;13.60;1.00;;;;;;5089184;28;20211;-91
2022/04/11 09:09:11;;;;;;;4.97;2.33;;;13.50;1.00;;;;;;5086619;28;20238;-85
2022/04/11 09:11:39;;;;;;;4.77;1.90;;;13.60;99.90;;;;;;5089588;28;20180;-90
2022/04/11 09:14:14;;;;;;;4.03;2.23;;;13.50;99.90;;;;;;5087055;28;20188;-87
2022/04/11 09:16:52;;;;;;;5.17;2.50;;;13.40;28.20;;;;;;5085545;28;20250;-83
2022/04/11 09:19:31;;;;;;;4.67;2.00;;;13.60;1.00;;;;;;5084305;28;20173;-88
2022/04/11 09:21:58;;;;;;;4.23;2.30;;;13.70;99.90;;;;;;5084966;28;20217;-87
2022/04/11 09:24:33;;;;;;;7.93;2.33;;;13.60;99.90;;;;;;5087568;28;20179;-85
2022/04/11 09:27:02;;;;;;;5.43;2.23;;;13.90;99.90;;;;;;5094561;28;20208;-86
2022/04/11 09:29:46;;;;;;;4.90;2.07;;;14.30;99.90;;;;;;5099115;28;20188;-77
2022/04/11 09:32:12;;;;;;;3.93;2.20;;;14.50;1.00;;;;;;5092825;28;20170;-78
2022/04/11 09:34:39;;;;;;;4.87;2.53;;;14.50;1.00;;;;;;5097143;28;20216;-81
2022/04/11 09:37:16;;;;;;;6.33;2.23;;;14.50;1.00;;;;;;5099554;28;20166;-80
2022/04/11 09:39:56;;;;;;;4.30;2.70;;;14.80;1.00;;;;;;5097258;28;20172;-77
2022/04/11 09:42:33;;;;;;;5.43;2.20;;;15.20;99.90;;;;;;5092905;28;20188;-80
2022/04/11 09:45:06;;;;;;;5.80;2.33;;;15.40;99.90;;;;;;5094818;28;20216;-80
2022/04/11 09:48:09;;;;;;;5.30;2.70;;;15.00;99.90;;;;;;5096855;28;20262;-84
2022/04/11 09:50:41;;;;;;;4.93;2.37;;;14.80;99.90;;;;;;5097344;28;20210;-78
2022/04/11 09:53:22;;;;;;;6.53;1.87;;;14.80;1.00;;;;;;5093894;28;20217;-89
2022/04/11 09:55:52;;;;;;;4.87;2.10;;;14.50;99.90;;;;;;5085949;28;20308;-91
2022/04/11 09:58:21;;;;;;;4.37;2.30;;;14.50;1.00;;;;;;5085863;28;20172;-87
2022/04/11 10:00:49;;;;;;;5.70;2.40;;;14.90;99.90;;;;;;5086184;28;20246;-88
2022/04/11 10:03:16;;;;;;;6.93;2.33;;;15.00;99.90;;;;;;5074998;28;20173;-88
2022/04/11 10:05:43;;;;;;;4.80;2.00;;;15.20;99.90;;;;;;5083934;28;20214;-87
2022/04/11 10:08:13;;;;;;;3.83;2.30;;;15.50;99.90;;;;;;5088320;28;20169;-87
2022/04/11 10:10:41;;;;;;;4.10;2.17;;;15.20;4.00;;;;;;5054837;28;20176;-90
2022/04/11 10:13:11;;;;;;;3.37;1.90;;;15.00;99.90;;;;;;5088563;28;20216;-88
2022/04/11 10:15:39;;;;;;;4.83;2.20;;;14.80;99.90;;;;;;5088489;28;20171;-81
2022/04/11 10:18:12;;;;;;;4.67;2.30;;;15.00;99.90;;;;;;5092848;28;20604;-90
2022/04/11 10:20:41;;;;;;;3.80;2.10;;;15.00;99.90;;;;;;5074210;28;20193;-88
2022/04/11 10:23:13;;;;;;;5.17;2.13;;;14.70;99.90;;;;;;5091030;28;20189;-89
2022/04/11 10:25:47;;;;;;;4.03;1.87;;;14.50;99.90;;;;;;5090233;28;20214;-90
2022/04/11 10:28:19;;;;;;;5.67;2.00;;;14.40;99.90;;;;;;5086102;28;20614;-87
2022/04/11 10:31:09;;;;;;;5.07;2.00;;;14.60;99.90;;;;;;5085487;28;20178;-81
2022/04/11 10:33:43;;;;;;;3.37;2.00;;;14.90;99.90;;;;;;5072171;28;20403;-88
2022/04/11 10:36:35;;;;;;;4.37;1.80;;;15.10;99.90;;;;;;5084103;28;20306;-90
2022/04/11 10:39:12;;;;;;;5.07;2.10;;;15.40;22.90;;;;;;5081681;28;20169;-81
2022/04/11 10:41:57;;;;;;;9.10;2.33;;;15.80;1.00;;;;;;5079595;28;20164;-78
2022/04/11 10:44:36;;;;;;;3.73;2.30;;;16.00;1.00;;;;;;5079315;28;20180;-77
2022/04/11 10:47:07;;;;;;;4.13;2.30;;;16.20;1.00;;;;;;5083624;28;20254;-82
2022/04/11 10:49:58;;;;;;;4.70;2.33;;;16.20;1.00;;;;;;5082051;28;20156;-80
2022/04/11 10:52:33;;;;;;;4.83;2.47;;;16.30;1.00;;;;;;5083449;28;20187;-86
2022/04/11 10:55:19;;;;;;;6.30;2.40;;;16.20;1.00;;;;;;5084280;28;20160;-79
2022/04/11 10:57:56;;;;;;;5.43;2.70;;;15.80;1.00;;;;;;5085798;28;20180;-84
2022/04/11 11:00:32;;;;;;;4.23;2.53;;;15.90;1.00;;;;;;5082157;28;20624;-84
2022/04/11 11:03:04;;;;;;;3.87;2.00;;;15.90;99.90;;;;;;5082268;28;20171;-88
2022/04/11 11:05:38;;;;;;;5.40;2.63;;;15.80;1.00;;;;;;5085212;28;20240;-83
2022/04/11 11:08:10;;;;;;;6.17;3.10;;;15.50;99.90;;;;;;5088348;28;20696;-88
2022/04/11 11:13:58;;;;;;;4.53;2.23;;;15.20;99.90;;;;;;5082468;28;20228;-78
2022/04/11 11:16:35;;;;;;;4.67;2.80;;;15.40;99.90;;;;;;5078491;28;20208;-77
2022/04/11 11:19:02;;;;;;;4.53;2.33;;;15.40;99.90;;;;;;5080645;28;20637;-83
2022/04/11 11:21:32;;;;;;;7.43;4.00;;;15.30;99.90;;;;;;5080979;28;20179;-77
2022/04/11 11:24:04;;;;;;;3.40;2.50;;;15.30;99.90;;;;;;5083851;28;20169;-87
2022/04/11 11:26:46;;;;;;;5.87;2.33;;;15.60;99.90;;;;;;5082949;28;20675;-76
2022/04/11 11:29:14;;;;;;;5.93;2.87;;;15.80;99.90;;;;;;5081710;28;20239;-78
2022/04/11 11:31:40;;;;;;;5.00;2.73;;;16.00;1.00;;;;;;5086836;28;20157;-82
2022/04/11 11:34:11;;;;;;;5.17;3.33;;;16.30;1.00;;;;;;5082970;28;20531;-83
2022/04/11 11:36:38;;;;;;;4.20;2.30;;;16.10;1.00;;;;;;5083624;28;20171;-84
2022/04/11 11:39:20;;;;;;;6.63;2.40;;;15.80;1.00;;;;;;5084509;28;20630;-89
2022/04/11 11:41:49;;;;;;;4.53;2.13;;;15.60;1.00;;;;;;5086798;28;20233;-87
2022/04/11 11:44:16;;;;;;;3.10;2.20;;;15.70;1.00;;;;;;5096338;28;20176;-78
2022/04/11 11:46:55;;;;;;;3.37;1.90;;;16.10;1.00;;;;;;5084552;28;20314;-78
2022/04/11 11:49:23;;;;;;;6.03;2.20;;;16.40;1.00;;;;;;5085325;28;20172;-85
2022/04/11 11:51:51;;;;;;;4.30;2.23;;;16.70;1.00;;;;;;5064839;28;20172;-87
2022/04/11 11:54:37;;;;;;;6.73;2.20;;;17.00;1.00;;;;;;5071450;28;20190;-90
2022/04/11 11:57:19;;;;;;;4.67;2.17;;;17.20;99.90;;;;;;5079503;28;20181;-88
2022/04/11 12:00:11;;;;;;;3.87;2.40;;;17.00;1.00;;;;;;5082223;28;20168;-87
2022/04/11 12:05:28;;;;;;;4.00;2.00;;;17.10;99.90;;;;;;5077925;28;20196;-85
2022/04/11 12:08:13;;;;;;;4.83;1.93;;;17.30;99.90;;;;;;5077202;28;20169;-90
2022/04/11 12:10:41;;;;;;;2.87;1.90;;;17.40;99.90;;;;;;5079602;28;20169;-89
2022/04/11 12:13:08;;;;;;;3.47;2.40;;;17.00;99.90;;;;;;5079299;28;20267;-87
2022/04/11 12:15:36;;;;;;;8.30;2.20;;;17.20;99.90;;;;;;5075267;28;20179;-88
2022/04/11 12:18:04;;;;;;;4.57;1.93;;;17.40;99.90;;;;;;5067424;28;20182;-88
2022/04/11 12:20:31;;;;;;;4.47;2.10;;;17.50;99.90;;;;;;5056902;28;20197;-80
2022/04/11 12:23:03;;;;;;;4.90;2.73;;;17.40;99.90;;;;;;5059014;28;20181;-81
2022/04/11 12:25:35;;;;;;;5.47;2.00;;;17.30;99.90;;;;;;5065934;28;20208;-86
2022/04/11 12:28:17;;;;;;;4.50;2.60;;;17.50;99.90;;;;;;5058382;28;20185;-79
2022/04/11 12:30:48;;;;;;;3.07;1.90;;;17.30;99.90;;;;;;5062705;28;20180;-78
2022/04/11 12:33:33;;;;;;;4.47;1.97;;;17.10;99.90;;;;;;5068001;28;20161;-86
2022/04/11 12:36:26;;;;;;;4.53;2.23;;;17.10;99.90;;;;;;5067950;28;20230;-84
2022/04/11 12:39:00;;;;;;;5.83;2.33;;;17.10;99.90;;;;;;5059736;28;20169;-81
2022/04/11 12:41:43;;;;;;;6.50;2.17;;;17.20;99.90;;;;;;5062098;28;20193;-80
2022/04/11 12:44:32;;;;;;;3.57;2.17;;;17.20;99.90;;;;;;5069696;28;20297;-76
2022/04/11 12:47:00;;;;;;;4.80;2.07;;;17.30;99.90;;;;;;5077205;28;20212;-80
2022/04/11 12:49:42;;;;;;;7.47;2.70;;;17.50;99.90;;;;;;5076308;28;20169;-76
2022/04/11 12:52:08;;;;;;;4.37;2.40;;;17.40;99.90;;;;;;5077148;28;20172;-81
2022/04/11 12:55:01;;;;;;;3.47;2.00;;;17.20;99.90;;;;;;5076022;28;20169;-76
2022/04/11 12:57:34;;;;;;;7.70;2.70;;;17.00;99.90;;;;;;5072834;28;20165;-78
2022/04/11 13:00:23;;;;;;;5.60;2.57;;;17.10;99.90;;;;;;5069803;28;20184;-83
2022/04/11 13:02:56;;;;;;;5.73;2.40;;;17.20;99.90;;;;;;5063988;28;20165;-78
2022/04/11 13:05:46;;;;;;;3.70;2.43;;;17.20;99.90;;;;;;5065523;28;20181;-87
2022/04/11 13:08:18;;;;;;;4.20;1.90;;;17.20;99.90;;;;;;5065420;28;20161;-84
2022/04/11 13:10:44;;;;;;;3.13;1.83;;;17.50;99.90;;;;;;5077251;28;20218;-80
2022/04/11 13:19:15;;;;;;;3.07;1.93;;;18.40;99.90;;;;;;5070038;28;20202;-83
2022/04/11 13:21:41;;;;;;;6.30;2.37;;;18.40;99.90;;;;;;5066005;28;20618;-77
2022/04/11 13:24:09;;;;;;;3.63;2.00;;;18.40;99.90;;;;;;5067049;28;20174;-83